createdAt,value
2022-12-18T00:00:22.339Z,1026.61
2022-12-18T00:01:22.403Z,1026.55
2022-12-18T00:02:22.341Z,1026.55
2022-12-18T00:03:22.368Z,1026.54
2022-12-18T00:04:22.521Z,1026.53
2022-12-18T00:05:22.287Z,1026.53
2022-12-18T00:06:22.267Z,1026.50
2022-12-18T00:07:22.238Z,1026.49
2022-12-18T00:08:22.237Z,1026.45
2022-12-18T00:09:22.249Z,1026.51
2022-12-18T00:10:22.234Z,1026.48
2022-12-18T00:11:22.205Z,1026.49
2022-12-18T00:12:22.205Z,1026.51
2022-12-18T00:13:22.167Z,1026.53
2022-12-18T00:14:22.156Z,1026.53
2022-12-18T00:15:22.146Z,1026.60
2022-12-18T00:16:22.244Z,1026.66
2022-12-18T00:17:22.144Z,1026.60
2022-12-18T00:18:22.145Z,1026.65
2022-12-18T00:19:22.089Z,1026.61
2022-12-18T00:20:22.093Z,1026.60
2022-12-18T00:21:22.095Z,1026.60
2022-12-18T00:22:22.122Z,1026.62
2022-12-18T00:23:22.061Z,1026.68
2022-12-18T00:24:22.033Z,1026.69
2022-12-18T00:25:22.041Z,1026.63
2022-12-18T00:26:22.037Z,1026.67
2022-12-18T00:27:22.021Z,1026.70
2022-12-18T00:28:22.000Z,1026.70
2022-12-18T00:29:21.977Z,1026.70
2022-12-18T00:30:22.008Z,1026.74
2022-12-18T00:31:22.065Z,1026.69
2022-12-18T00:32:21.940Z,1026.77
2022-12-18T00:33:21.954Z,1026.73
2022-12-18T00:34:21.950Z,1026.73
2022-12-18T00:35:21.895Z,1026.80
2022-12-18T00:36:21.917Z,1026.81
2022-12-18T00:37:21.894Z,1026.80
2022-12-18T00:38:21.871Z,1026.82
2022-12-18T00:39:21.880Z,1026.85
2022-12-18T00:40:21.867Z,1026.84
2022-12-18T00:41:21.845Z,1026.76
2022-12-18T00:42:21.846Z,1026.79
2022-12-18T00:43:21.814Z,1026.76
2022-12-18T00:44:21.834Z,1026.67
2022-12-18T00:45:21.797Z,1026.68
2022-12-18T00:46:21.793Z,1026.66
2022-12-18T00:47:21.776Z,1026.61
2022-12-18T00:48:21.763Z,1026.59
2022-12-18T00:49:21.715Z,1026.63
2022-12-18T00:50:21.752Z,1026.61
2022-12-18T00:51:21.706Z,1026.62
2022-12-18T00:52:21.725Z,1026.62
2022-12-18T00:53:21.669Z,1026.62
2022-12-18T00:54:21.690Z,1026.53
2022-12-18T00:55:21.661Z,1026.60
2022-12-18T00:56:21.667Z,1026.53
2022-12-18T00:57:21.650Z,1026.59
2022-12-18T00:58:21.647Z,1026.55
2022-12-18T00:59:21.623Z,1026.54
2022-12-18T01:00:21.593Z,1026.53
2022-12-18T01:01:21.721Z,1026.53
2022-12-18T01:02:21.689Z,1026.49
2022-12-18T01:03:21.581Z,1026.50
2022-12-18T01:04:21.600Z,1026.57
2022-12-18T01:05:21.554Z,1026.61
2022-12-18T01:06:21.540Z,1026.62
2022-12-18T01:07:21.492Z,1026.60
2022-12-18T01:08:21.500Z,1026.62
2022-12-18T01:09:21.497Z,1026.62
2022-12-18T01:10:21.471Z,1026.53
2022-12-18T01:11:21.474Z,1026.52
2022-12-18T01:12:21.472Z,1026.61
2022-12-18T01:13:21.508Z,1026.46
2022-12-18T01:14:21.434Z,1026.52
2022-12-18T01:15:21.462Z,1026.42
2022-12-18T01:16:21.457Z,1026.48
2022-12-18T01:17:21.434Z,1026.47
2022-12-18T01:18:21.367Z,1026.47
2022-12-18T01:19:21.372Z,1026.52
2022-12-18T01:20:21.337Z,1026.53
2022-12-18T01:21:21.374Z,1026.52
2022-12-18T01:22:21.338Z,1026.57
2022-12-18T01:23:21.316Z,1026.52
2022-12-18T01:24:21.304Z,1026.58
2022-12-18T01:25:21.311Z,1026.59
2022-12-18T01:26:21.288Z,1026.58
2022-12-18T01:27:21.291Z,1026.66
2022-12-18T01:28:21.253Z,1026.66
2022-12-18T01:29:21.260Z,1026.65
2022-12-18T01:30:21.212Z,1026.64
2022-12-18T01:31:21.351Z,1026.66
2022-12-18T01:32:21.210Z,1026.60
2022-12-18T01:33:21.251Z,1026.59
2022-12-18T01:34:21.189Z,1026.60
2022-12-18T01:35:21.199Z,1026.67
2022-12-18T01:36:21.142Z,1026.71
2022-12-18T01:37:21.143Z,1026.63
2022-12-18T01:38:21.141Z,1026.58
2022-12-18T01:39:21.155Z,1026.56
2022-12-18T01:40:21.104Z,1026.56
2022-12-18T01:41:21.125Z,1026.60
2022-12-18T01:42:21.100Z,1026.56
2022-12-18T01:43:21.100Z,1026.56
2022-12-18T01:44:21.086Z,1026.63
2022-12-18T01:45:21.073Z,1026.66
2022-12-18T01:46:21.096Z,1026.61
2022-12-18T01:47:21.018Z,1026.53
2022-12-18T01:48:21.014Z,1026.52
2022-12-18T01:49:21.025Z,1026.56
2022-12-18T01:50:21.021Z,1026.53
2022-12-18T01:51:20.965Z,1026.57
2022-12-18T01:52:20.947Z,1026.47
2022-12-18T01:53:20.974Z,1026.50
2022-12-18T01:54:20.955Z,1026.54
2022-12-18T01:55:20.993Z,1026.54
2022-12-18T01:56:20.931Z,1026.48
2022-12-18T01:57:20.898Z,1026.53
2022-12-18T01:58:20.901Z,1026.54
2022-12-18T01:59:20.904Z,1026.52
2022-12-18T02:00:20.863Z,1026.60
2022-12-18T02:01:21.011Z,1026.55
2022-12-18T02:02:20.986Z,1026.56
2022-12-18T02:03:20.868Z,1026.50
2022-12-18T02:04:20.821Z,1026.51
2022-12-18T02:05:20.819Z,1026.48
2022-12-18T02:06:20.798Z,1026.48
2022-12-18T02:07:20.774Z,1026.44
2022-12-18T02:08:20.753Z,1026.49
2022-12-18T02:09:20.759Z,1026.55
2022-12-18T02:10:20.722Z,1026.49
2022-12-18T02:11:20.739Z,1026.51
2022-12-18T02:12:20.713Z,1026.55
2022-12-18T02:13:20.725Z,1026.52
2022-12-18T02:14:20.713Z,1026.46
2022-12-18T02:15:20.692Z,1026.48
2022-12-18T02:16:20.782Z,1026.49
2022-12-18T02:17:20.679Z,1026.49
2022-12-18T02:18:20.629Z,1026.45
2022-12-18T02:19:20.637Z,1026.44
2022-12-18T02:20:20.609Z,1026.48
2022-12-18T02:21:20.596Z,1026.50
2022-12-18T02:22:20.586Z,1026.41
2022-12-18T02:23:20.587Z,1026.50
2022-12-18T02:24:20.547Z,1026.54
2022-12-18T02:25:20.554Z,1026.51
2022-12-18T02:26:20.562Z,1026.48
2022-12-18T02:27:20.577Z,1026.51
2022-12-18T02:28:20.531Z,1026.53
2022-12-18T02:29:20.542Z,1026.58
2022-12-18T02:30:20.512Z,1026.61
2022-12-18T02:31:20.493Z,1026.63
2022-12-18T02:32:20.471Z,1026.50
2022-12-18T02:33:20.480Z,1026.54
2022-12-18T02:34:20.460Z,1026.53
2022-12-18T02:35:20.459Z,1026.47
2022-12-18T02:36:20.430Z,1026.44
2022-12-18T02:37:20.412Z,1026.48
2022-12-18T02:38:20.427Z,1026.42
2022-12-18T02:39:20.372Z,1026.41
2022-12-18T02:40:20.350Z,1026.38
2022-12-18T02:41:20.390Z,1026.38
2022-12-18T02:42:20.343Z,1026.36
2022-12-18T02:43:20.356Z,1026.37
2022-12-18T02:44:20.310Z,1026.39
2022-12-18T02:45:20.306Z,1026.35
2022-12-18T02:46:20.328Z,1026.30
2022-12-18T02:47:20.318Z,1026.27
2022-12-18T02:48:20.285Z,1026.30
2022-12-18T02:49:20.259Z,1026.27
2022-12-18T02:50:20.231Z,1026.25
2022-12-18T02:51:20.265Z,1026.23
2022-12-18T02:52:20.233Z,1026.33
2022-12-18T02:53:20.243Z,1026.26
2022-12-18T02:54:20.189Z,1026.31
2022-12-18T02:55:20.186Z,1026.23
2022-12-18T02:56:20.155Z,1026.28
2022-12-18T02:57:20.192Z,1026.30
2022-12-18T02:58:20.174Z,1026.29
2022-12-18T02:59:20.161Z,1026.29
2022-12-18T03:00:20.141Z,1026.37
2022-12-18T03:01:20.218Z,1026.38
2022-12-18T03:02:20.392Z,1026.39
2022-12-18T03:03:20.232Z,1026.33
2022-12-18T03:04:20.092Z,1026.43
2022-12-18T03:05:20.110Z,1026.39
2022-12-18T03:06:20.032Z,1026.41
2022-12-18T03:07:20.068Z,1026.37
2022-12-18T03:08:20.014Z,1026.36
2022-12-18T03:09:20.062Z,1026.29
2022-12-18T03:10:19.993Z,1026.31
2022-12-18T03:11:20.017Z,1026.30
2022-12-18T03:12:19.997Z,1026.18
2022-12-18T03:13:19.970Z,1026.23
2022-12-18T03:14:19.954Z,1026.25
2022-12-18T03:15:19.988Z,1026.22
2022-12-18T03:16:19.975Z,1026.26
2022-12-18T03:17:19.918Z,1026.26
2022-12-18T03:18:19.905Z,1026.22
2022-12-18T03:19:19.930Z,1026.29
2022-12-18T03:20:19.905Z,1026.26
2022-12-18T03:21:19.909Z,1026.18
2022-12-18T03:22:19.873Z,1026.17
2022-12-18T03:23:22.336Z,1026.14
2022-12-18T03:24:20.855Z,1026.15
2022-12-18T03:25:19.850Z,1026.16
2022-12-18T03:26:19.823Z,1026.16
2022-12-18T03:27:19.786Z,1026.14
2022-12-18T03:28:19.796Z,1026.21
2022-12-18T03:29:19.814Z,1026.11
2022-12-18T03:30:19.772Z,1026.09
2022-12-18T03:31:19.802Z,1026.09
2022-12-18T03:32:19.759Z,1026.02
2022-12-18T03:33:19.758Z,1026.02
2022-12-18T03:34:19.714Z,1026.00
2022-12-18T03:35:19.740Z,1025.96
2022-12-18T03:36:19.701Z,1026.03
2022-12-18T03:37:19.673Z,1026.08
2022-12-18T03:38:19.650Z,1026.10
2022-12-18T03:39:19.642Z,1026.00
2022-12-18T03:40:19.669Z,1026.04
2022-12-18T03:41:19.623Z,1026.03
2022-12-18T03:42:19.602Z,1026.11
2022-12-18T03:43:19.591Z,1026.14
2022-12-18T03:44:19.608Z,1026.02
2022-12-18T03:45:19.609Z,1026.09
2022-12-18T03:46:19.589Z,1026.08
2022-12-18T03:47:19.563Z,1026.15
2022-12-18T03:48:19.557Z,1026.09
2022-12-18T03:49:19.521Z,1026.10
2022-12-18T03:50:19.520Z,1026.09
2022-12-18T03:51:19.501Z,1026.08
2022-12-18T03:52:19.506Z,1026.16
2022-12-18T03:53:19.480Z,1026.11
2022-12-18T03:54:19.460Z,1026.12
2022-12-18T03:55:19.449Z,1026.13
2022-12-18T03:56:19.439Z,1026.13
2022-12-18T03:57:19.426Z,1025.98
2022-12-18T03:58:19.446Z,1026.00
2022-12-18T03:59:19.435Z,1026.01
2022-12-18T04:00:19.386Z,1025.96
2022-12-18T04:01:19.512Z,1025.95
2022-12-18T04:02:19.533Z,1025.94
2022-12-18T04:03:22.682Z,1025.94
2022-12-18T04:04:20.363Z,1025.97
2022-12-18T04:05:19.358Z,1025.97
2022-12-18T04:06:19.309Z,1025.90
2022-12-18T04:07:19.310Z,1025.88
2022-12-18T04:08:19.311Z,1025.88
2022-12-18T04:09:19.310Z,1025.86
2022-12-18T04:10:19.257Z,1025.88
2022-12-18T04:11:19.272Z,1025.88
2022-12-18T04:12:19.236Z,1025.84
2022-12-18T04:13:19.231Z,1025.81
2022-12-18T04:14:19.233Z,1025.85
2022-12-18T04:15:19.211Z,1025.83
2022-12-18T04:16:19.299Z,1025.83
2022-12-18T04:17:19.208Z,1025.84
2022-12-18T04:18:19.184Z,1025.85
2022-12-18T04:19:19.164Z,1025.85
2022-12-18T04:20:19.135Z,1025.86
2022-12-18T04:21:19.156Z,1025.87
2022-12-18T04:22:19.135Z,1025.85
2022-12-18T04:23:19.138Z,1025.95
2022-12-18T04:24:19.090Z,1025.87
2022-12-18T04:25:19.104Z,1025.85
2022-12-18T04:26:19.069Z,1025.84
2022-12-18T04:27:19.078Z,1025.91
2022-12-18T04:28:19.055Z,1025.87
2022-12-18T04:29:19.080Z,1025.86
2022-12-18T04:30:19.016Z,1025.91
2022-12-18T04:31:19.093Z,1025.87
2022-12-18T04:32:19.033Z,1025.89
2022-12-18T04:33:19.002Z,1025.92
2022-12-18T04:34:18.997Z,1025.94
2022-12-18T04:35:18.965Z,1025.87
2022-12-18T04:36:18.935Z,1025.86
2022-12-18T04:37:18.972Z,1025.89
2022-12-18T04:38:18.921Z,1025.92
2022-12-18T04:39:18.917Z,1026.00
2022-12-18T04:40:18.895Z,1026.00
2022-12-18T04:41:18.884Z,1025.90
2022-12-18T04:42:18.876Z,1025.94
2022-12-18T04:43:18.938Z,1025.95
2022-12-18T04:44:18.843Z,1025.99
2022-12-18T04:45:18.877Z,1025.96
2022-12-18T04:46:18.834Z,1025.93
2022-12-18T04:47:18.832Z,1025.93
2022-12-18T04:48:18.826Z,1025.95
2022-12-18T04:49:18.819Z,1025.99
2022-12-18T04:50:18.772Z,1025.87
2022-12-18T04:51:23.323Z,1025.94
2022-12-18T04:52:19.749Z,1025.88
2022-12-18T04:53:18.773Z,1025.89
2022-12-18T04:54:18.746Z,1025.83
2022-12-18T04:55:18.738Z,1025.91
2022-12-18T04:56:18.726Z,1025.82
2022-12-18T04:57:18.738Z,1025.88
2022-12-18T04:58:18.679Z,1025.81
2022-12-18T04:59:18.686Z,1025.83
2022-12-18T05:00:18.687Z,1025.79
2022-12-18T05:01:18.837Z,1025.86
2022-12-18T05:02:18.794Z,1025.85
2022-12-18T05:03:18.667Z,1025.84
2022-12-18T05:04:18.624Z,1025.79
2022-12-18T05:05:18.633Z,1025.84
2022-12-18T05:06:18.590Z,1025.78
2022-12-18T05:07:18.565Z,1025.80
2022-12-18T05:08:18.574Z,1025.74
2022-12-18T05:09:18.538Z,1025.74
2022-12-18T05:10:18.552Z,1025.69
2022-12-18T05:11:18.553Z,1025.74
2022-12-18T05:12:18.502Z,1025.65
2022-12-18T05:13:18.523Z,1025.63
2022-12-18T05:14:18.499Z,1025.61
2022-12-18T05:15:18.500Z,1025.64
2022-12-18T05:16:18.587Z,1025.63
2022-12-18T05:17:18.485Z,1025.66
2022-12-18T05:18:18.432Z,1025.68
2022-12-18T05:19:18.417Z,1025.67
2022-12-18T05:20:18.432Z,1025.72
2022-12-18T05:21:18.432Z,1025.70
2022-12-18T05:22:18.407Z,1025.70
2022-12-18T05:23:18.418Z,1025.72
2022-12-18T05:24:18.378Z,1025.65
2022-12-18T05:25:18.352Z,1025.65
2022-12-18T05:26:18.347Z,1025.73
2022-12-18T05:27:18.310Z,1025.63
2022-12-18T05:28:18.345Z,1025.62
2022-12-18T05:29:18.299Z,1025.68
2022-12-18T05:30:18.312Z,1025.60
2022-12-18T05:31:18.304Z,1025.68
2022-12-18T05:32:18.281Z,1025.56
2022-12-18T05:33:18.256Z,1025.68
2022-12-18T05:34:18.238Z,1025.71
2022-12-18T05:35:18.247Z,1025.69
2022-12-18T05:36:18.243Z,1025.72
2022-12-18T05:37:18.223Z,1025.76
2022-12-18T05:38:18.215Z,1025.76
2022-12-18T05:39:18.176Z,1025.78
2022-12-18T05:40:18.168Z,1025.77
2022-12-18T05:41:18.141Z,1025.82
2022-12-18T05:42:18.180Z,1025.85
2022-12-18T05:43:21.323Z,1025.89
2022-12-18T05:44:18.125Z,1025.93
2022-12-18T05:45:18.085Z,1025.90
2022-12-18T05:46:18.143Z,1025.90
2022-12-18T05:47:18.089Z,1025.91
2022-12-18T05:48:18.093Z,1025.96
2022-12-18T05:49:18.061Z,1025.99
2022-12-18T05:50:18.052Z,1025.99
2022-12-18T05:51:18.011Z,1025.90
2022-12-18T05:52:18.013Z,1026.03
2022-12-18T05:53:18.001Z,1026.01
2022-12-18T05:54:18.041Z,1025.96
2022-12-18T05:55:17.971Z,1025.95
2022-12-18T05:56:17.980Z,1025.98
2022-12-18T05:57:17.969Z,1026.00
2022-12-18T05:58:17.939Z,1026.03
2022-12-18T05:59:25.533Z,1026.06
2022-12-18T06:00:17.942Z,1026.04
2022-12-18T06:01:17.934Z,1026.14
2022-12-18T06:02:18.068Z,1026.16
2022-12-18T06:03:18.042Z,1026.18
2022-12-18T06:04:17.913Z,1026.14
2022-12-18T06:05:17.872Z,1026.21
2022-12-18T06:06:17.876Z,1026.18
2022-12-18T06:07:17.850Z,1026.17
2022-12-18T06:08:17.821Z,1026.19
2022-12-18T06:09:17.840Z,1026.20
2022-12-18T06:10:17.793Z,1026.18
2022-12-18T06:11:17.818Z,1026.22
2022-12-18T06:12:17.797Z,1026.20
2022-12-18T06:13:17.772Z,1026.30
2022-12-18T06:14:17.760Z,1026.31
2022-12-18T06:15:17.722Z,1026.27
2022-12-18T06:16:17.780Z,1026.31
2022-12-18T06:17:17.698Z,1026.30
2022-12-18T06:18:17.723Z,1026.34
2022-12-18T06:19:17.688Z,1026.33
2022-12-18T06:20:17.669Z,1026.32
2022-12-18T06:21:17.653Z,1026.34
2022-12-18T06:22:17.684Z,1026.43
2022-12-18T06:23:17.646Z,1026.39
2022-12-18T06:24:17.665Z,1026.36
2022-12-18T06:25:17.626Z,1026.44
2022-12-18T06:26:17.665Z,1026.39
2022-12-18T06:27:17.601Z,1026.39
2022-12-18T06:28:17.593Z,1026.42
2022-12-18T06:29:17.590Z,1026.44
2022-12-18T06:30:17.596Z,1026.45
2022-12-18T06:31:17.587Z,1026.45
2022-12-18T06:32:17.552Z,1026.47
2022-12-18T06:33:17.505Z,1026.45
2022-12-18T06:34:17.505Z,1026.44
2022-12-18T06:35:17.514Z,1026.39
2022-12-18T06:36:17.487Z,1026.31
2022-12-18T06:37:17.470Z,1026.41
2022-12-18T06:38:17.479Z,1026.32
2022-12-18T06:39:17.424Z,1026.34
2022-12-18T06:40:17.452Z,1026.29
2022-12-18T06:41:17.429Z,1026.23
2022-12-18T06:42:17.428Z,1026.26
2022-12-18T06:43:17.406Z,1026.25
2022-12-18T06:44:17.388Z,1026.19
2022-12-18T06:45:17.379Z,1026.24
2022-12-18T06:46:17.513Z,1026.26
2022-12-18T06:47:17.328Z,1026.19
2022-12-18T06:48:17.355Z,1026.23
2022-12-18T06:49:17.324Z,1026.21
2022-12-18T06:50:17.380Z,1026.21
2022-12-18T06:51:17.291Z,1026.23
2022-12-18T06:52:17.305Z,1026.21
2022-12-18T06:53:17.285Z,1026.17
2022-12-18T06:54:17.285Z,1026.25
2022-12-18T06:55:17.265Z,1026.19
2022-12-18T06:56:17.247Z,1026.22
2022-12-18T06:57:17.244Z,1026.19
2022-12-18T06:58:17.230Z,1026.14
2022-12-18T06:59:17.187Z,1026.14
2022-12-18T07:00:17.190Z,1026.12
2022-12-18T07:01:17.299Z,1026.07
2022-12-18T07:02:17.312Z,1026.10
2022-12-18T07:03:17.136Z,1026.15
2022-12-18T07:04:17.144Z,1026.10
2022-12-18T07:05:17.124Z,1026.05
2022-12-18T07:06:17.186Z,1025.98
2022-12-18T07:07:17.110Z,1026.04
2022-12-18T07:08:17.141Z,1026.11
2022-12-18T07:09:17.124Z,1026.02
2022-12-18T07:10:17.062Z,1025.98
2022-12-18T07:11:17.085Z,1026.10
2022-12-18T07:12:17.099Z,1026.02
2022-12-18T07:13:17.022Z,1026.04
2022-12-18T07:14:17.038Z,1026.05
2022-12-18T07:15:17.011Z,1026.04
2022-12-18T07:16:22.609Z,1026.07
2022-12-18T07:17:18.027Z,1025.98
2022-12-18T07:18:16.999Z,1026.10
2022-12-18T07:19:16.961Z,1026.12
2022-12-18T07:20:16.957Z,1026.11
2022-12-18T07:21:16.949Z,1026.05
2022-12-18T07:22:16.956Z,1026.06
2022-12-18T07:23:16.917Z,1026.08
2022-12-18T07:24:16.919Z,1026.05
2022-12-18T07:25:16.904Z,1026.11
2022-12-18T07:26:16.893Z,1026.10
2022-12-18T07:27:16.869Z,1026.04
2022-12-18T07:28:17.647Z,1026.08
2022-12-18T07:29:16.834Z,1026.07
2022-12-18T07:30:16.835Z,1025.99
2022-12-18T07:31:16.849Z,1025.98
2022-12-18T07:32:16.821Z,1026.01
2022-12-18T07:33:16.787Z,1026.00
2022-12-18T07:34:16.794Z,1026.01
2022-12-18T07:35:20.780Z,1025.94
2022-12-18T07:36:17.808Z,1025.90
2022-12-18T07:37:16.746Z,1025.96
2022-12-18T07:38:16.779Z,1025.95
2022-12-18T07:39:16.720Z,1025.94
2022-12-18T07:40:16.721Z,1026.06
2022-12-18T07:41:16.664Z,1026.02
2022-12-18T07:42:16.700Z,1025.98
2022-12-18T07:43:16.670Z,1025.96
2022-12-18T07:44:16.712Z,1025.97
2022-12-18T07:45:16.670Z,1026.02
2022-12-18T07:46:16.797Z,1026.04
2022-12-18T07:47:16.656Z,1026.00
2022-12-18T07:48:16.629Z,1025.98
2022-12-18T07:49:16.605Z,1025.99
2022-12-18T07:50:16.573Z,1025.92
2022-12-18T07:51:16.595Z,1025.92
2022-12-18T07:52:19.312Z,1025.99
2022-12-18T07:53:17.540Z,1026.04
2022-12-18T07:54:16.568Z,1026.05
2022-12-18T07:55:16.573Z,1026.07
2022-12-18T07:56:31.892Z,1026.09
2022-12-18T07:57:48.494Z,1026.10
2022-12-18T07:58:17.480Z,1026.11
2022-12-18T07:59:16.439Z,1026.08
2022-12-18T08:00:16.512Z,1025.99
2022-12-18T08:01:16.594Z,1026.07
2022-12-18T08:02:16.647Z,1025.89
2022-12-18T08:03:16.429Z,1025.89
2022-12-18T08:04:16.402Z,1025.91
2022-12-18T08:05:16.657Z,1025.86
2022-12-18T08:06:16.402Z,1025.77
2022-12-18T08:07:17.321Z,1025.73
2022-12-18T08:08:16.413Z,1025.71
2022-12-18T08:09:16.382Z,1025.65
2022-12-18T08:10:16.343Z,1025.70
2022-12-18T08:11:16.325Z,1025.81
2022-12-18T08:12:16.331Z,1025.79
2022-12-18T08:13:16.333Z,1025.73
2022-12-18T08:14:16.274Z,1025.74
2022-12-18T08:15:16.291Z,1025.72
2022-12-18T08:16:16.294Z,1025.70
2022-12-18T08:17:16.292Z,1025.70
2022-12-18T08:18:16.223Z,1025.82
2022-12-18T08:19:16.239Z,1025.65
2022-12-18T08:20:16.212Z,1025.62
2022-12-18T08:21:16.190Z,1025.66
2022-12-18T08:22:16.288Z,1025.67
2022-12-18T08:23:17.200Z,1025.59
2022-12-18T08:24:16.187Z,1025.54
2022-12-18T08:25:16.157Z,1025.53
2022-12-18T08:26:16.176Z,1025.44
2022-12-18T08:27:31.475Z,1025.36
2022-12-18T08:28:17.145Z,1025.45
2022-12-18T08:29:21.242Z,1025.41
2022-12-18T08:30:17.106Z,1025.40
2022-12-18T08:31:16.124Z,1025.38
2022-12-18T08:32:16.107Z,1025.34
2022-12-18T08:33:16.027Z,1025.41
2022-12-18T08:34:16.103Z,1025.35
2022-12-18T08:35:18.725Z,1025.35
2022-12-18T08:36:16.120Z,1025.37
2022-12-18T08:37:16.052Z,1025.35
2022-12-18T08:38:16.021Z,1025.43
2022-12-18T08:39:16.014Z,1025.44
2022-12-18T08:40:15.954Z,1025.39
2022-12-18T08:41:15.948Z,1025.35
2022-12-18T08:42:15.982Z,1025.34
2022-12-18T08:43:15.934Z,1025.34
2022-12-18T08:44:15.906Z,1025.40
2022-12-18T08:45:15.945Z,1025.40
2022-12-18T08:46:15.923Z,1025.46
2022-12-18T08:47:16.650Z,1025.48
2022-12-18T08:48:21.877Z,1025.44
2022-12-18T08:49:16.843Z,1025.40
2022-12-18T08:50:16.548Z,1025.46
2022-12-18T08:51:15.803Z,1025.49
2022-12-18T08:52:15.852Z,1025.43
2022-12-18T08:53:15.820Z,1025.35
2022-12-18T08:54:15.801Z,1025.35
2022-12-18T08:55:15.760Z,1025.26
2022-12-18T08:56:15.794Z,1025.27
2022-12-18T08:57:15.770Z,1025.33
2022-12-18T08:58:15.758Z,1025.32
2022-12-18T08:59:19.331Z,1025.34
2022-12-18T09:00:15.714Z,1025.31
2022-12-18T09:01:15.860Z,1025.29
2022-12-18T09:02:16.037Z,1025.35
2022-12-18T09:03:15.725Z,1025.29
2022-12-18T09:04:15.668Z,1025.37
2022-12-18T09:05:15.684Z,1025.34
2022-12-18T09:06:15.643Z,1025.33
2022-12-18T09:07:15.645Z,1025.34
2022-12-18T09:08:15.618Z,1025.37
2022-12-18T09:09:15.634Z,1025.37
2022-12-18T09:10:15.636Z,1025.30
2022-12-18T09:11:15.595Z,1025.33
2022-12-18T09:12:15.620Z,1025.34
2022-12-18T09:13:15.651Z,1025.21
2022-12-18T09:14:15.564Z,1025.28
2022-12-18T09:15:15.635Z,1025.25
2022-12-18T09:16:15.665Z,1025.30
2022-12-18T09:17:15.618Z,1025.31
2022-12-18T09:18:15.522Z,1025.27
2022-12-18T09:19:15.493Z,1025.26
2022-12-18T09:20:15.504Z,1025.27
2022-12-18T09:21:15.469Z,1025.33
2022-12-18T09:22:15.498Z,1025.22
2022-12-18T09:23:15.505Z,1025.30
2022-12-18T09:24:15.422Z,1025.19
2022-12-18T09:25:15.435Z,1025.12
2022-12-18T09:26:15.434Z,1025.13
2022-12-18T09:27:15.362Z,1025.05
2022-12-18T09:28:15.380Z,1025.11
2022-12-18T09:29:15.369Z,1025.08
2022-12-18T09:30:15.386Z,1025.10
2022-12-18T09:31:15.481Z,1025.15
2022-12-18T09:32:22.054Z,1025.12
2022-12-18T09:33:16.359Z,1025.22
2022-12-18T09:34:15.323Z,1025.14
2022-12-18T09:35:15.295Z,1025.16
2022-12-18T09:36:15.308Z,1025.07
2022-12-18T09:37:15.275Z,1025.07
2022-12-18T09:38:16.218Z,1025.06
2022-12-18T09:39:15.227Z,1024.96
2022-12-18T09:40:15.304Z,1025.00
2022-12-18T09:41:15.244Z,1025.00
2022-12-18T09:42:15.208Z,1024.91
2022-12-18T09:43:15.176Z,1024.84
2022-12-18T09:44:15.232Z,1024.87
2022-12-18T09:45:15.241Z,1024.88
2022-12-18T09:46:15.156Z,1024.87
2022-12-18T09:47:15.420Z,1024.88
2022-12-18T09:48:15.175Z,1024.88
2022-12-18T09:49:15.141Z,1024.91
2022-12-18T09:50:17.394Z,1024.78
2022-12-18T09:51:15.107Z,1024.73
2022-12-18T09:52:15.140Z,1024.76
2022-12-18T09:53:15.074Z,1024.74
2022-12-18T09:54:15.069Z,1024.76
2022-12-18T09:55:15.042Z,1024.67
2022-12-18T09:56:15.040Z,1024.77
2022-12-18T09:57:15.042Z,1024.69
2022-12-18T09:58:15.021Z,1024.82
2022-12-18T09:59:15.068Z,1024.77
2022-12-18T10:00:14.964Z,1024.72
2022-12-18T10:01:15.219Z,1024.77
2022-12-18T10:02:15.065Z,1024.70
2022-12-18T10:03:15.061Z,1024.73
2022-12-18T10:04:14.956Z,1024.71
2022-12-18T10:05:14.917Z,1024.73
2022-12-18T10:06:15.866Z,1024.63
2022-12-18T10:07:14.915Z,1024.66
2022-12-18T10:08:14.984Z,1024.69
2022-12-18T10:09:14.969Z,1024.68
2022-12-18T10:10:14.873Z,1024.55
2022-12-18T10:11:14.874Z,1024.62
2022-12-18T10:12:14.819Z,1024.60
2022-12-18T10:13:14.837Z,1024.58
2022-12-18T10:14:14.794Z,1024.62
2022-12-18T10:15:14.796Z,1024.61
2022-12-18T10:16:14.854Z,1024.51
2022-12-18T10:17:14.804Z,1024.53
2022-12-18T10:18:21.578Z,1024.43
2022-12-18T10:19:16.722Z,1024.43
2022-12-18T10:20:14.741Z,1024.30
2022-12-18T10:21:14.738Z,1024.33
2022-12-18T10:22:14.844Z,1024.27
2022-12-18T10:23:14.740Z,1024.16
2022-12-18T10:24:14.756Z,1024.40
2022-12-18T10:25:14.696Z,1024.34
2022-12-18T10:26:14.680Z,1024.42
2022-12-18T10:27:14.672Z,1024.40
2022-12-18T10:28:14.668Z,1024.36
2022-12-18T10:29:14.648Z,1024.30
2022-12-18T10:30:14.594Z,1024.33
2022-12-18T10:31:14.656Z,1024.34
2022-12-18T10:32:14.607Z,1024.40
2022-12-18T10:33:14.647Z,1024.41
2022-12-18T10:34:14.568Z,1024.43
2022-12-18T10:35:14.599Z,1024.42
2022-12-18T10:36:14.555Z,1024.53
2022-12-18T10:37:14.553Z,1024.49
2022-12-18T10:38:14.508Z,1024.44
2022-12-18T10:39:14.523Z,1024.44
2022-12-18T10:40:21.529Z,1024.37
2022-12-18T10:41:15.469Z,1024.35
2022-12-18T10:42:14.501Z,1024.38
2022-12-18T10:43:14.504Z,1024.32
2022-12-18T10:44:14.457Z,1024.34
2022-12-18T10:45:14.480Z,1024.34
2022-12-18T10:46:14.462Z,1024.36
2022-12-18T10:47:14.456Z,1024.44
2022-12-18T10:48:14.751Z,1024.26
2022-12-18T10:49:14.443Z,1024.33
2022-12-18T10:50:14.346Z,1024.25
2022-12-18T10:51:14.364Z,1024.28
2022-12-18T10:52:14.334Z,1024.35
2022-12-18T10:53:14.363Z,1024.33
2022-12-18T10:54:14.298Z,1024.31
2022-12-18T10:55:14.329Z,1024.26
2022-12-18T10:56:14.304Z,1024.11
2022-12-18T10:57:14.369Z,1024.18
2022-12-18T10:58:14.262Z,1024.21
2022-12-18T10:59:14.251Z,1024.06
2022-12-18T11:00:14.261Z,1024.11
2022-12-18T11:01:14.355Z,1024.14
2022-12-18T11:02:14.289Z,1024.11
2022-12-18T11:03:14.532Z,1024.17
2022-12-18T11:04:14.180Z,1024.08
2022-12-18T11:05:14.190Z,1024.15
2022-12-18T11:06:14.154Z,1024.10
2022-12-18T11:07:14.177Z,1023.96
2022-12-18T11:08:14.207Z,1024.03
2022-12-18T11:09:15.615Z,1024.08
2022-12-18T11:10:14.850Z,1024.02
2022-12-18T11:11:14.109Z,1024.01
2022-12-18T11:12:14.109Z,1024.00
2022-12-18T11:13:14.127Z,1023.98
2022-12-18T11:14:14.062Z,1024.04
2022-12-18T11:15:14.118Z,1024.02
2022-12-18T11:16:14.103Z,1024.12
2022-12-18T11:17:30.230Z,1024.02
2022-12-18T11:18:15.046Z,1023.95
2022-12-18T11:19:14.119Z,1023.92
2022-12-18T11:20:14.014Z,1024.02
2022-12-18T11:21:14.062Z,1023.95
2022-12-18T11:22:14.005Z,1023.85
2022-12-18T11:23:14.934Z,1024.02
2022-12-18T11:24:13.951Z,1023.98
2022-12-18T11:26:14.904Z,1023.95
2022-12-18T11:27:13.905Z,1023.93
2022-12-18T11:28:13.905Z,1023.97
2022-12-18T11:29:13.884Z,1023.86
2022-12-18T11:30:13.870Z,1023.94
2022-12-18T11:31:13.921Z,1023.81
2022-12-18T11:32:13.832Z,1023.88
2022-12-18T11:33:13.856Z,1023.80
2022-12-18T11:34:29.270Z,1023.76
2022-12-18T11:35:14.840Z,1023.79
2022-12-18T11:36:13.772Z,1023.78
2022-12-18T11:37:14.480Z,1023.69
2022-12-18T11:38:13.862Z,1023.77
2022-12-18T11:39:14.010Z,1023.69
2022-12-18T11:40:13.737Z,1023.70
2022-12-18T11:41:13.728Z,1023.72
2022-12-18T11:42:13.748Z,1023.74
2022-12-18T11:43:13.709Z,1023.70
2022-12-18T11:44:13.957Z,1023.70
2022-12-18T11:45:13.678Z,1023.75
2022-12-18T11:46:19.353Z,1023.65
2022-12-18T11:47:14.768Z,1023.64
2022-12-18T11:48:13.664Z,1023.62
2022-12-18T11:49:13.646Z,1023.63
2022-12-18T11:50:13.652Z,1023.60
2022-12-18T11:51:13.684Z,1023.61
2022-12-18T11:52:13.614Z,1023.51
2022-12-18T11:53:13.590Z,1023.60
2022-12-18T11:54:13.576Z,1023.61
2022-12-18T11:55:13.588Z,1023.54
2022-12-18T11:56:13.539Z,1023.57
2022-12-18T11:57:13.560Z,1023.55
2022-12-18T11:58:13.534Z,1023.58
2022-12-18T11:59:13.542Z,1023.53
2022-12-18T12:01:06.825Z,1023.49
2022-12-18T12:02:06.839Z,1023.40
2022-12-18T12:03:06.820Z,1023.52
2022-12-18T12:04:06.848Z,1023.52
2022-12-18T12:05:06.750Z,1023.55
2022-12-18T12:06:06.716Z,1023.49
2022-12-18T12:07:06.715Z,1023.49